sensor_id;sensor_type;location;lat;lon;timestamp;P1;durP1;ratioP1;P2;durP2;ratioP2
53674;SDS011;39574;50.534;8.500;2022-10-23T00:03:44;31.5;;;8.8;;
53674;SDS011;39574;50.534;8.500;2022-10-23T00:08:43;31.0;;;9.0;;
53674;SDS011;39574;50.534;8.500;2022-10-23T00:13:42;30.6;;;9.4;;
53674;SDS011;39574;50.534;8.500;2022-10-23T00:18:41;95.8;;;12.0;;
53674;SDS011;39574;50.534;8.500;2022-10-23T00:23:40;73.7;;;10.5;;
53674;SDS011;39574;50.534;8.500;2022-10-23T00:28:39;51.5;;;8.9;;
53674;SDS011;39574;50.534;8.500;2022-10-23T00:33:38;35.8;;;8.1;;
53674;SDS011;39574;50.534;8.500;2022-10-23T00:38:37;20.9;;;7.1;;
53674;SDS011;39574;50.534;8.500;2022-10-23T00:43:53;17.3;;;6.9;;
53674;SDS011;39574;50.534;8.500;2022-10-23T00:48:35;17.3;;;7.0;;
53674;SDS011;39574;50.534;8.500;2022-10-23T00:53:34;13.2;;;6.7;;
53674;SDS011;39574;50.534;8.500;2022-10-23T00:58:33;13.5;;;7.2;;
53674;SDS011;39574;50.534;8.500;2022-10-23T01:03:33;12.0;;;6.7;;
53674;SDS011;39574;50.534;8.500;2022-10-23T01:08:33;13.2;;;6.4;;
53674;SDS011;39574;50.534;8.500;2022-10-23T01:13:33;17.4;;;6.6;;
53674;SDS011;39574;50.534;8.500;2022-10-23T01:18:32;18.6;;;6.7;;
53674;SDS011;39574;50.534;8.500;2022-10-23T01:23:34;16.6;;;6.6;;
53674;SDS011;39574;50.534;8.500;2022-10-23T01:28:28;14.1;;;6.5;;
53674;SDS011;39574;50.534;8.500;2022-10-23T01:33:28;12.5;;;6.1;;
53674;SDS011;39574;50.534;8.500;2022-10-23T01:38:27;44.4;;;8.3;;
53674;SDS011;39574;50.534;8.500;2022-10-23T01:43:26;46.7;;;8.4;;
53674;SDS011;39574;50.534;8.500;2022-10-23T01:48:25;36.3;;;7.8;;
53674;SDS011;39574;50.534;8.500;2022-10-23T01:53:24;28.4;;;7.9;;
53674;SDS011;39574;50.534;8.500;2022-10-23T01:58:22;16.5;;;6.6;;
53674;SDS011;39574;50.534;8.500;2022-10-23T02:03:21;13.0;;;6.1;;
53674;SDS011;39574;50.534;8.500;2022-10-23T02:08:21;12.5;;;6.0;;
53674;SDS011;39574;50.534;8.500;2022-10-23T02:13:21;13.7;;;6.4;;
53674;SDS011;39574;50.534;8.500;2022-10-23T02:18:23;15.2;;;6.7;;
53674;SDS011;39574;50.534;8.500;2022-10-23T02:23:19;14.1;;;6.8;;
53674;SDS011;39574;50.534;8.500;2022-10-23T02:28:18;35.0;;;7.6;;
53674;SDS011;39574;50.534;8.500;2022-10-23T02:33:16;37.8;;;7.9;;
53674;SDS011;39574;50.534;8.500;2022-10-23T02:38:32;29.4;;;7.5;;
53674;SDS011;39574;50.534;8.500;2022-10-23T02:43:15;23.0;;;7.5;;
53674;SDS011;39574;50.534;8.500;2022-10-23T02:48:15;19.3;;;7.7;;
53674;SDS011;39574;50.534;8.500;2022-10-23T02:53:13;22.5;;;8.3;;
53674;SDS011;39574;50.534;8.500;2022-10-23T02:58:14;55.3;;;9.7;;
53674;SDS011;39574;50.534;8.500;2022-10-23T03:03:12;56.2;;;9.3;;
53674;SDS011;39574;50.534;8.500;2022-10-23T03:08:10;41.4;;;8.5;;
53674;SDS011;39574;50.534;8.500;2022-10-23T03:13:09;29.3;;;8.8;;
53674;SDS011;39574;50.534;8.500;2022-10-23T03:18:08;20.4;;;8.5;;
53674;SDS011;39574;50.534;8.500;2022-10-23T03:23:07;18.2;;;8.5;;
53674;SDS011;39574;50.534;8.500;2022-10-23T03:28:06;18.3;;;7.9;;
53674;SDS011;39574;50.534;8.500;2022-10-23T03:33:05;23.6;;;7.9;;
53674;SDS011;39574;50.534;8.500;2022-10-23T03:38:04;20.6;;;8.5;;
53674;SDS011;39574;50.534;8.500;2022-10-23T03:43:03;24.2;;;8.6;;
53674;SDS011;39574;50.534;8.500;2022-10-23T03:48:02;22.5;;;8.3;;
53674;SDS011;39574;50.534;8.500;2022-10-23T03:53:01;25.4;;;7.7;;
53674;SDS011;39574;50.534;8.500;2022-10-23T03:58:00;32.1;;;7.6;;
53674;SDS011;39574;50.534;8.500;2022-10-23T04:02:59;27.3;;;7.1;;
53674;SDS011;39574;50.534;8.500;2022-10-23T04:07:58;62.8;;;9.6;;
53674;SDS011;39574;50.534;8.500;2022-10-23T04:12:57;49.8;;;8.4;;
53674;SDS011;39574;50.534;8.500;2022-10-23T04:17:56;34.3;;;7.4;;
53674;SDS011;39574;50.534;8.500;2022-10-23T04:22:55;25.0;;;6.8;;
53674;SDS011;39574;50.534;8.500;2022-10-23T04:27:54;17.7;;;6.4;;
53674;SDS011;39574;50.534;8.500;2022-10-23T04:32:53;19.2;;;6.7;;
53674;SDS011;39574;50.534;8.500;2022-10-23T04:37:52;18.5;;;6.5;;
53674;SDS011;39574;50.534;8.500;2022-10-23T04:42:52;20.0;;;6.8;;
53674;SDS011;39574;50.534;8.500;2022-10-23T04:47:51;17.8;;;6.8;;
53674;SDS011;39574;50.534;8.500;2022-10-23T04:52:52;18.0;;;6.8;;
53674;SDS011;39574;50.534;8.500;2022-10-23T04:57:49;16.3;;;6.7;;
53674;SDS011;39574;50.534;8.500;2022-10-23T05:02:48;24.6;;;7.2;;
53674;SDS011;39574;50.534;8.500;2022-10-23T05:07:47;23.3;;;7.0;;
53674;SDS011;39574;50.534;8.500;2022-10-23T05:12:46;21.6;;;7.0;;
53674;SDS011;39574;50.534;8.500;2022-10-23T05:17:45;29.6;;;7.1;;
53674;SDS011;39574;50.534;8.500;2022-10-23T05:22:44;26.9;;;6.7;;
53674;SDS011;39574;50.534;8.500;2022-10-23T05:27:43;33.4;;;7.0;;
53674;SDS011;39574;50.534;8.500;2022-10-23T05:32:42;28.6;;;6.3;;
53674;SDS011;39574;50.534;8.500;2022-10-23T05:37:42;19.0;;;5.2;;
53674;SDS011;39574;50.534;8.500;2022-10-23T05:42:40;22.7;;;5.3;;
53674;SDS011;39574;50.534;8.500;2022-10-23T05:47:42;15.4;;;4.7;;
53674;SDS011;39574;50.534;8.500;2022-10-23T05:52:38;11.6;;;4.3;;
53674;SDS011;39574;50.534;8.500;2022-10-23T05:57:37;9.1;;;4.2;;
53674;SDS011;39574;50.534;8.500;2022-10-23T06:02:36;8.0;;;4.0;;
53674;SDS011;39574;50.534;8.500;2022-10-23T06:07:35;8.2;;;4.3;;
53674;SDS011;39574;50.534;8.500;2022-10-23T06:12:35;8.7;;;4.5;;
53674;SDS011;39574;50.534;8.500;2022-10-23T06:17:34;13.2;;;5.0;;
53674;SDS011;39574;50.534;8.500;2022-10-23T06:22:33;11.9;;;5.0;;
53674;SDS011;39574;50.534;8.500;2022-10-23T06:27:32;10.8;;;4.8;;
53674;SDS011;39574;50.534;8.500;2022-10-23T06:32:31;15.6;;;7.2;;
53674;SDS011;39574;50.534;8.500;2022-10-23T06:37:32;12.3;;;6.4;;
53674;SDS011;39574;50.534;8.500;2022-10-23T06:42:29;12.4;;;6.4;;
53674;SDS011;39574;50.534;8.500;2022-10-23T06:47:28;12.1;;;5.7;;
53674;SDS011;39574;50.534;8.500;2022-10-23T06:52:27;11.3;;;5.8;;
53674;SDS011;39574;50.534;8.500;2022-10-23T06:57:26;10.0;;;5.7;;
53674;SDS011;39574;50.534;8.500;2022-10-23T07:02:25;8.0;;;5.0;;
53674;SDS011;39574;50.534;8.500;2022-10-23T07:07:24;6.7;;;4.7;;
53674;SDS011;39574;50.534;8.500;2022-10-23T07:12:23;6.5;;;4.5;;
53674;SDS011;39574;50.534;8.500;2022-10-23T07:17:22;8.5;;;4.6;;
53674;SDS011;39574;50.534;8.500;2022-10-23T07:22:21;8.3;;;4.3;;
53674;SDS011;39574;50.534;8.500;2022-10-23T07:27:20;7.4;;;4.2;;
53674;SDS011;39574;50.534;8.500;2022-10-23T07:32:20;7.0;;;4.1;;
53674;SDS011;39574;50.534;8.500;2022-10-23T07:37:19;6.9;;;4.3;;
53674;SDS011;39574;50.534;8.500;2022-10-23T07:42:18;10.9;;;5.9;;
53674;SDS011;39574;50.534;8.500;2022-10-23T07:47:17;27.7;;;12.4;;
53674;SDS011;39574;50.534;8.500;2022-10-23T07:52:16;22.4;;;10.4;;
53674;SDS011;39574;50.534;8.500;2022-10-23T07:57:15;17.3;;;8.3;;
53674;SDS011;39574;50.534;8.500;2022-10-23T08:02:14;11.9;;;6.4;;
53674;SDS011;39574;50.534;8.500;2022-10-23T08:07:13;7.7;;;4.6;;
53674;SDS011;39574;50.534;8.500;2022-10-23T08:12:12;7.6;;;4.9;;
53674;SDS011;39574;50.534;8.500;2022-10-23T08:17:11;7.3;;;5.0;;
53674;SDS011;39574;50.534;8.500;2022-10-23T08:22:10;7.2;;;4.9;;
53674;SDS011;39574;50.534;8.500;2022-10-23T08:27:10;6.8;;;4.6;;
53674;SDS011;39574;50.534;8.500;2022-10-23T08:32:09;6.9;;;4.4;;
53674;SDS011;39574;50.534;8.500;2022-10-23T08:37:08;7.2;;;4.4;;
53674;SDS011;39574;50.534;8.500;2022-10-23T08:42:14;7.3;;;4.6;;
53674;SDS011;39574;50.534;8.500;2022-10-23T08:47:07;7.1;;;4.6;;
53674;SDS011;39574;50.534;8.500;2022-10-23T08:52:09;7.3;;;4.8;;
53674;SDS011;39574;50.534;8.500;2022-10-23T08:57:08;8.0;;;4.9;;
53674;SDS011;39574;50.534;8.500;2022-10-23T09:02:07;8.3;;;5.0;;
53674;SDS011;39574;50.534;8.500;2022-10-23T09:07:04;8.2;;;4.8;;
53674;SDS011;39574;50.534;8.500;2022-10-23T09:12:04;7.9;;;4.3;;
53674;SDS011;39574;50.534;8.500;2022-10-23T09:17:05;7.1;;;3.8;;
53674;SDS011;39574;50.534;8.500;2022-10-23T09:22:00;7.6;;;3.5;;
53674;SDS011;39574;50.534;8.500;2022-10-23T09:27:00;7.1;;;3.3;;
53674;SDS011;39574;50.534;8.500;2022-10-23T09:31:59;6.5;;;3.1;;
53674;SDS011;39574;50.534;8.500;2022-10-23T09:36:59;6.5;;;3.0;;
53674;SDS011;39574;50.534;8.500;2022-10-23T09:41:58;6.1;;;3.0;;
53674;SDS011;39574;50.534;8.500;2022-10-23T09:46:58;6.2;;;3.1;;
53674;SDS011;39574;50.534;8.500;2022-10-23T09:52:00;6.6;;;3.7;;
53674;SDS011;39574;50.534;8.500;2022-10-23T09:57:03;7.3;;;4.4;;
53674;SDS011;39574;50.534;8.500;2022-10-23T10:01:55;8.0;;;4.5;;
53674;SDS011;39574;50.534;8.500;2022-10-23T10:06:55;7.5;;;4.2;;
53674;SDS011;39574;50.534;8.500;2022-10-23T10:11:53;7.3;;;3.9;;
53674;SDS011;39574;50.534;8.500;2022-10-23T10:16:52;8.1;;;4.9;;
53674;SDS011;39574;50.534;8.500;2022-10-23T10:21:51;8.2;;;4.5;;
53674;SDS011;39574;50.534;8.500;2022-10-23T10:26:51;8.1;;;4.2;;
53674;SDS011;39574;50.534;8.500;2022-10-23T10:31:53;7.2;;;3.6;;
53674;SDS011;39574;50.534;8.500;2022-10-23T10:36:49;6.7;;;3.0;;
53674;SDS011;39574;50.534;8.500;2022-10-23T10:41:51;6.3;;;2.9;;
53674;SDS011;39574;50.534;8.500;2022-10-23T10:46:49;5.9;;;2.8;;
53674;SDS011;39574;50.534;8.500;2022-10-23T10:51:48;5.4;;;2.7;;
53674;SDS011;39574;50.534;8.500;2022-10-23T10:56:46;5.6;;;2.5;;
53674;SDS011;39574;50.534;8.500;2022-10-23T11:01:46;5.5;;;2.6;;
53674;SDS011;39574;50.534;8.500;2022-10-23T11:06:44;5.2;;;2.6;;
53674;SDS011;39574;50.534;8.500;2022-10-23T11:11:43;5.4;;;2.7;;
53674;SDS011;39574;50.534;8.500;2022-10-23T11:16:44;4.5;;;2.4;;
53674;SDS011;39574;50.534;8.500;2022-10-23T11:21:42;4.7;;;2.3;;
53674;SDS011;39574;50.534;8.500;2022-10-23T11:26:44;5.9;;;2.5;;
53674;SDS011;39574;50.534;8.500;2022-10-23T11:31:43;6.6;;;2.5;;
53674;SDS011;39574;50.534;8.500;2022-10-23T11:36:41;6.5;;;2.8;;
53674;SDS011;39574;50.534;8.500;2022-10-23T11:41:45;5.8;;;2.7;;
53674;SDS011;39574;50.534;8.500;2022-10-23T11:46:38;5.0;;;2.5;;
53674;SDS011;39574;50.534;8.500;2022-10-23T11:51:38;4.5;;;2.2;;
53674;SDS011;39574;50.534;8.500;2022-10-23T11:56:37;4.0;;;2.3;;
53674;SDS011;39574;50.534;8.500;2022-10-23T12:01:38;4.5;;;2.5;;
53674;SDS011;39574;50.534;8.500;2022-10-23T12:06:37;4.1;;;2.3;;
53674;SDS011;39574;50.534;8.500;2022-10-23T12:11:38;4.6;;;2.1;;
53674;SDS011;39574;50.534;8.500;2022-10-23T12:16:34;4.5;;;1.9;;
53674;SDS011;39574;50.534;8.500;2022-10-23T12:21:33;4.3;;;2.0;;
53674;SDS011;39574;50.534;8.500;2022-10-23T12:26:51;4.9;;;2.5;;
53674;SDS011;39574;50.534;8.500;2022-10-23T12:31:35;4.7;;;2.4;;
53674;SDS011;39574;50.534;8.500;2022-10-23T12:36:36;4.8;;;2.2;;
53674;SDS011;39574;50.534;8.500;2022-10-23T12:41:30;4.3;;;2.0;;
53674;SDS011;39574;50.534;8.500;2022-10-23T12:46:30;4.4;;;1.8;;
53674;SDS011;39574;50.534;8.500;2022-10-23T12:51:30;4.8;;;1.7;;
53674;SDS011;39574;50.534;8.500;2022-10-23T12:56:32;4.0;;;1.7;;
53674;SDS011;39574;50.534;8.500;2022-10-23T13:01:29;3.5;;;1.7;;
53674;SDS011;39574;50.534;8.500;2022-10-23T13:06:27;2.7;;;1.4;;
53674;SDS011;39574;50.534;8.500;2022-10-23T13:11:26;3.2;;;1.3;;
53674;SDS011;39574;50.534;8.500;2022-10-23T13:16:26;3.3;;;1.3;;
53674;SDS011;39574;50.534;8.500;2022-10-23T13:21:26;3.5;;;1.3;;
53674;SDS011;39574;50.534;8.500;2022-10-23T13:26:28;3.1;;;1.4;;
53674;SDS011;39574;50.534;8.500;2022-10-23T13:31:26;3.3;;;1.6;;
53674;SDS011;39574;50.534;8.500;2022-10-23T13:36:24;3.6;;;1.6;;
53674;SDS011;39574;50.534;8.500;2022-10-23T13:41:23;3.8;;;1.6;;
53674;SDS011;39574;50.534;8.500;2022-10-23T13:46:23;4.2;;;1.6;;
53674;SDS011;39574;50.534;8.500;2022-10-23T13:51:22;4.3;;;1.8;;
53674;SDS011;39574;50.534;8.500;2022-10-23T13:56:25;3.7;;;1.7;;
53674;SDS011;39574;50.534;8.500;2022-10-23T14:01:21;3.8;;;1.8;;
53674;SDS011;39574;50.534;8.500;2022-10-23T14:06:20;3.4;;;1.7;;
53674;SDS011;39574;50.534;8.500;2022-10-23T14:11:19;4.1;;;2.0;;
53674;SDS011;39574;50.534;8.500;2022-10-23T14:16:19;3.9;;;1.8;;
53674;SDS011;39574;50.534;8.500;2022-10-23T14:21:18;3.8;;;1.9;;
53674;SDS011;39574;50.534;8.500;2022-10-23T14:26:18;3.9;;;2.0;;
53674;SDS011;39574;50.534;8.500;2022-10-23T14:31:16;4.7;;;2.0;;
53674;SDS011;39574;50.534;8.500;2022-10-23T14:36:15;4.6;;;2.1;;
53674;SDS011;39574;50.534;8.500;2022-10-23T14:41:15;5.0;;;2.2;;
53674;SDS011;39574;50.534;8.500;2022-10-23T14:46:14;4.9;;;2.1;;
53674;SDS011;39574;50.534;8.500;2022-10-23T14:51:14;5.8;;;2.9;;
53674;SDS011;39574;50.534;8.500;2022-10-23T14:56:13;6.3;;;2.9;;
53674;SDS011;39574;50.534;8.500;2022-10-23T15:01:12;6.3;;;3.1;;
53674;SDS011;39574;50.534;8.500;2022-10-23T15:06:11;5.8;;;3.0;;
53674;SDS011;39574;50.534;8.500;2022-10-23T15:11:10;5.6;;;2.8;;
53674;SDS011;39574;50.534;8.500;2022-10-23T15:16:10;4.5;;;2.6;;
53674;SDS011;39574;50.534;8.500;2022-10-23T15:21:09;4.0;;;2.5;;
53674;SDS011;39574;50.534;8.500;2022-10-23T15:26:10;4.2;;;2.4;;
53674;SDS011;39574;50.534;8.500;2022-10-23T15:31:21;4.2;;;2.3;;
53674;SDS011;39574;50.534;8.500;2022-10-23T15:36:07;4.9;;;2.6;;
53674;SDS011;39574;50.534;8.500;2022-10-23T15:41:13;5.4;;;3.0;;
53674;SDS011;39574;50.534;8.500;2022-10-23T15:46:05;6.3;;;4.0;;
53674;SDS011;39574;50.534;8.500;2022-10-23T15:51:05;6.8;;;4.3;;
53674;SDS011;39574;50.534;8.500;2022-10-23T15:56:04;7.3;;;4.5;;
53674;SDS011;39574;50.534;8.500;2022-10-23T16:01:04;7.2;;;4.2;;
53674;SDS011;39574;50.534;8.500;2022-10-23T16:06:03;6.0;;;3.4;;
53674;SDS011;39574;50.534;8.500;2022-10-23T16:11:02;5.7;;;3.3;;
53674;SDS011;39574;50.534;8.500;2022-10-23T16:16:01;7.4;;;4.8;;
53674;SDS011;39574;50.534;8.500;2022-10-23T16:21:00;7.2;;;4.6;;
53674;SDS011;39574;50.534;8.500;2022-10-23T16:26:00;6.9;;;4.3;;
53674;SDS011;39574;50.534;8.500;2022-10-23T16:30:59;7.7;;;4.6;;
53674;SDS011;39574;50.534;8.500;2022-10-23T16:36:00;7.7;;;4.3;;
53674;SDS011;39574;50.534;8.500;2022-10-23T16:40:58;8.3;;;5.2;;
53674;SDS011;39574;50.534;8.500;2022-10-23T16:46:01;9.2;;;6.5;;
53674;SDS011;39574;50.534;8.500;2022-10-23T16:50:56;10.2;;;7.1;;
53674;SDS011;39574;50.534;8.500;2022-10-23T16:55:55;10.7;;;7.6;;
53674;SDS011;39574;50.534;8.500;2022-10-23T17:00:56;10.5;;;6.9;;
53674;SDS011;39574;50.534;8.500;2022-10-23T17:05:57;8.8;;;5.7;;
53674;SDS011;39574;50.534;8.500;2022-10-23T17:11:03;7.6;;;4.8;;
53674;SDS011;39574;50.534;8.500;2022-10-23T17:16:00;6.5;;;3.5;;
53674;SDS011;39574;50.534;8.500;2022-10-23T17:20:54;5.4;;;3.0;;
53674;SDS011;39574;50.534;8.500;2022-10-23T17:25:51;6.8;;;3.0;;
53674;SDS011;39574;50.534;8.500;2022-10-23T17:30:51;7.5;;;3.6;;
53674;SDS011;39574;50.534;8.500;2022-10-23T17:35:50;6.5;;;3.5;;
53674;SDS011;39574;50.534;8.500;2022-10-23T17:40:49;6.0;;;3.6;;
53674;SDS011;39574;50.534;8.500;2022-10-23T17:45:48;6.5;;;3.9;;
53674;SDS011;39574;50.534;8.500;2022-10-23T17:50:47;6.4;;;3.7;;
53674;SDS011;39574;50.534;8.500;2022-10-23T17:55:47;6.8;;;3.7;;
53674;SDS011;39574;50.534;8.500;2022-10-23T18:00:46;7.0;;;3.9;;
53674;SDS011;39574;50.534;8.500;2022-10-23T18:05:45;7.3;;;4.4;;
53674;SDS011;39574;50.534;8.500;2022-10-23T18:10:44;7.9;;;5.1;;
53674;SDS011;39574;50.534;8.500;2022-10-23T18:15:44;9.2;;;5.8;;
53674;SDS011;39574;50.534;8.500;2022-10-23T18:20:43;10.4;;;5.8;;
53674;SDS011;39574;50.534;8.500;2022-10-23T18:25:42;9.6;;;5.3;;
53674;SDS011;39574;50.534;8.500;2022-10-23T18:30:41;9.8;;;4.8;;
53674;SDS011;39574;50.534;8.500;2022-10-23T18:35:41;9.3;;;4.5;;
53674;SDS011;39574;50.534;8.500;2022-10-23T18:40:41;8.6;;;4.1;;
53674;SDS011;39574;50.534;8.500;2022-10-23T18:45:40;8.6;;;4.1;;
53674;SDS011;39574;50.534;8.500;2022-10-23T18:50:38;7.5;;;3.7;;
53674;SDS011;39574;50.534;8.500;2022-10-23T18:55:43;8.0;;;3.7;;
53674;SDS011;39574;50.534;8.500;2022-10-23T19:00:38;8.0;;;3.6;;
53674;SDS011;39574;50.534;8.500;2022-10-23T19:05:39;7.7;;;3.5;;
53674;SDS011;39574;50.534;8.500;2022-10-23T19:10:36;8.5;;;3.9;;
53674;SDS011;39574;50.534;8.500;2022-10-23T19:15:35;8.8;;;4.2;;
53674;SDS011;39574;50.534;8.500;2022-10-23T19:20:34;8.9;;;4.5;;
53674;SDS011;39574;50.534;8.500;2022-10-23T19:25:33;10.0;;;4.3;;
53674;SDS011;39574;50.534;8.500;2022-10-23T19:30:33;10.0;;;4.3;;
53674;SDS011;39574;50.534;8.500;2022-10-23T19:35:32;9.7;;;4.1;;
53674;SDS011;39574;50.534;8.500;2022-10-23T19:40:31;8.3;;;3.8;;
53674;SDS011;39574;50.534;8.500;2022-10-23T19:45:30;7.9;;;3.6;;
53674;SDS011;39574;50.534;8.500;2022-10-23T19:50:30;9.7;;;5.5;;
53674;SDS011;39574;50.534;8.500;2022-10-23T19:55:29;10.0;;;5.9;;
53674;SDS011;39574;50.534;8.500;2022-10-23T20:00:28;12.2;;;8.9;;
53674;SDS011;39574;50.534;8.500;2022-10-23T20:05:27;11.4;;;8.5;;
53674;SDS011;39574;50.534;8.500;2022-10-23T20:10:27;10.6;;;7.4;;
53674;SDS011;39574;50.534;8.500;2022-10-23T20:15:26;10.4;;;6.7;;
53674;SDS011;39574;50.534;8.500;2022-10-23T20:20:25;9.6;;;5.8;;
53674;SDS011;39574;50.534;8.500;2022-10-23T20:25:25;11.0;;;6.9;;
53674;SDS011;39574;50.534;8.500;2022-10-23T20:30:23;13.0;;;8.1;;
53674;SDS011;39574;50.534;8.500;2022-10-23T20:45:21;12.4;;;7.4;;
53674;SDS011;39574;50.534;8.500;2022-10-23T20:50:20;10.6;;;6.5;;
53674;SDS011;39574;50.534;8.500;2022-10-23T20:55:19;9.8;;;5.6;;
53674;SDS011;39574;50.534;8.500;2022-10-23T21:00:19;8.7;;;5.0;;
53674;SDS011;39574;50.534;8.500;2022-10-23T21:05:18;8.9;;;4.8;;
53674;SDS011;39574;50.534;8.500;2022-10-23T21:10:17;8.4;;;4.4;;
53674;SDS011;39574;50.534;8.500;2022-10-23T21:15:16;8.9;;;4.3;;
53674;SDS011;39574;50.534;8.500;2022-10-23T21:20:16;8.2;;;4.0;;
53674;SDS011;39574;50.534;8.500;2022-10-23T21:25:15;8.1;;;3.7;;
53674;SDS011;39574;50.534;8.500;2022-10-23T21:30:14;7.7;;;4.0;;
53674;SDS011;39574;50.534;8.500;2022-10-23T21:35:13;8.5;;;5.0;;
53674;SDS011;39574;50.534;8.500;2022-10-23T21:40:12;9.8;;;6.2;;
53674;SDS011;39574;50.534;8.500;2022-10-23T21:45:12;13.7;;;7.3;;
53674;SDS011;39574;50.534;8.500;2022-10-23T21:50:11;13.3;;;7.3;;
53674;SDS011;39574;50.534;8.500;2022-10-23T21:55:10;13.6;;;6.9;;
53674;SDS011;39574;50.534;8.500;2022-10-23T22:00:12;13.6;;;6.7;;
53674;SDS011;39574;50.534;8.500;2022-10-23T22:05:09;12.5;;;6.1;;
53674;SDS011;39574;50.534;8.500;2022-10-23T22:10:08;11.2;;;5.6;;
53674;SDS011;39574;50.534;8.500;2022-10-23T22:15:07;11.1;;;5.2;;
53674;SDS011;39574;50.534;8.500;2022-10-23T22:20:07;10.4;;;4.6;;
53674;SDS011;39574;50.534;8.500;2022-10-23T22:25:06;9.1;;;4.1;;
53674;SDS011;39574;50.534;8.500;2022-10-23T22:30:05;8.8;;;3.8;;
53674;SDS011;39574;50.534;8.500;2022-10-23T22:35:04;7.8;;;3.6;;
53674;SDS011;39574;50.534;8.500;2022-10-23T22:40:03;11.0;;;4.3;;
53674;SDS011;39574;50.534;8.500;2022-10-23T22:45:02;10.8;;;4.9;;
53674;SDS011;39574;50.534;8.500;2022-10-23T22:50:02;11.2;;;5.9;;
53674;SDS011;39574;50.534;8.500;2022-10-23T22:55:01;10.7;;;6.1;;
53674;SDS011;39574;50.534;8.500;2022-10-23T23:00:00;10.7;;;5.8;;
53674;SDS011;39574;50.534;8.500;2022-10-23T23:04:59;10.9;;;5.5;;
53674;SDS011;39574;50.534;8.500;2022-10-23T23:09:58;11.0;;;5.3;;
53674;SDS011;39574;50.534;8.500;2022-10-23T23:14:58;10.9;;;5.2;;
53674;SDS011;39574;50.534;8.500;2022-10-23T23:19:57;11.0;;;5.7;;
53674;SDS011;39574;50.534;8.500;2022-10-23T23:24:58;15.2;;;7.3;;
53674;SDS011;39574;50.534;8.500;2022-10-23T23:29:55;16.6;;;8.4;;
53674;SDS011;39574;50.534;8.500;2022-10-23T23:34:56;32.9;;;9.2;;
53674;SDS011;39574;50.534;8.500;2022-10-23T23:39:54;31.3;;;8.0;;
53674;SDS011;39574;50.534;8.500;2022-10-23T23:44:53;23.7;;;6.5;;
53674;SDS011;39574;50.534;8.500;2022-10-23T23:49:52;28.0;;;6.0;;
53674;SDS011;39574;50.534;8.500;2022-10-23T23:54:51;18.6;;;5.0;;
53674;SDS011;39574;50.534;8.500;2022-10-23T23:59:51;17.3;;;4.8;;
